Cornish, Minnesota
Current Conditions -  °F | °C
As of 3:26 PM on Friday 31 Oct 2014 (Local Time) from KHZX Reporting Station
Clear Clear  
Wind Chill: 37°   Ceiling: Unl
Heat Index: 37°   Visibility: 10mi
Dew Point: 18°   Wind: 0mph
Humidity: 45%   Direction: NA
Pressure: 30.49"   Gusts: NA
Location:  46.9333°N, 93.1876°W
Report Text: KHZX 312026Z AUTO 00000KT 10SM CLR 03/M08 A3049 RMK AO2
Loading
Personal Weather Stations






























Interactive Weather Map
Tropical Storm Tracking
New forecast layout! Learn more

10-Day Weather Forecast

Advertisements
Track Severe Weather on mobile